Buoy 46928

sailwx.info

Track history (hours):
 
Tides and Currents Weather Stations Pressure Air Temp Water Temp Dewpoint Dewpoint Depression Visibility Wind Speed Wind Dir Waves Ship Positions

Drifting buoy 46928

Last reported at 2015-Jul-31 11:40 UTC. Time now 2015-Jul-31 13:24 UTC.
Position N 55°25' W 133°59'.

Barometer 1015.1 mb
Water temperature 14.4 ° C

Date/timePositionNaut miles runAvg speedWind from/ knotsBaromVisibWave heightAir tempDewpointWater temp
2015-Jul-31 11:40N 55°25' W 133°59'4 0.6 1015.1 14.4
2015-Jul-31 05:40N 55°25' W 134°06'3 0.5 1015.3 14.4
2015-Jul-30 23:40N 55°23' W 134°01'2 0.5 1017.2 14.4
2015-Jul-30 19:40N 55°25' W 134°03'5 1.1 1019.1 14.1
2015-Jul-30 14:40N 55°20' W 134°01'3 0.3 1020.3 13.7
2015-Jul-30 05:40N 55°20' W 133°56'1 0.2 1022.9 13.7
2015-Jul-30 01:40N 55°20' W 133°55'2 0.3 1023.6 13.7
2015-Jul-29 20:40N 55°21' W 133°55'1 0.3 1023.2 13.7
2015-Jul-29 16:40N 55°20' W 133°56'1 0.3 1022.6 13.7
2015-Jul-29 14:40N 55°20' W 133°55'1 0.1 1022.3 13.7
2015-Jul-29 05:40N 55°21' W 133°54'1 0.2 1020.5 13.7
2015-Jul-29 02:40N 55°21' W 133°53'1 0.1 1020.3 13.7
2015-Jul-28 15:40N 55°22' W 133°52'1 0.3 1018.2 13.6
2015-Jul-28 11:40N 55°21' W 133°50'2 0.3 1016.9 13.6
2015-Jul-28 05:40N 55°22' W 133°52'1 0.3 1013.7 13.5
2015-Jul-28 02:40N 55°21' W 133°53'1 0.1 1013.5 13.6
2015-Jul-27 20:40N 55°22' W 133°54'1 0.6 1015.2 13.7
2015-Jul-27 19:40N 55°23' W 133°53'2 0.1 1015.2 13.7
2015-Jul-27 00:40N 55°24' W 133°54'0 0.4 1017.1 14.2
2015-Jul-26 23:40N 55°25' W 133°55'2 0.8 1017.6 14.2
2015-Jul-26 21:40N 55°25' W 133°57'1 0.7 1017.8 14.2
2015-Jul-26 20:40N 55°26' W 133°56'2 0.8 1017.5 14.2
2015-Jul-26 18:40N 55°27' W 133°59'1 0.6 1017.0 14.1
2015-Jul-26 17:40N 55°26' W 133°58'0 0.0 1017.2 14.1
2015-Jul-26 16:40N 55°26' W 133°58'1 0.9 1016.9 14.1
2015-Jul-26 15:40N 55°27' W 133°57'0 0.4 1017.0 14.1
2015-Jul-26 14:40N 55°26' W 133°57'0 0.3 1016.8 14.2
2015-Jul-26 13:40N 55°26' W 133°57'1 0.9 1016.5 14.2
2015-Jul-26 12:40N 55°27' W 133°56'3 1.5 1016.5 14.3
2015-Jul-26 10:40N 55°30' W 133°56'0 0.1 1016.3 14.4
2015-Jul-26 06:40N 55°30' W 133°57'0 0.4 1015.7 14.6
2015-Jul-26 05:40N 55°30' W 133°57'1 0.6 1015.8 14.7
2015-Jul-26 03:40N 55°32' W 133°57'0 0.0 1015.6 14.7
2015-Jul-26 02:40N 55°32' W 133°57'0 0.1 1015.5 14.7
2015-Jul-25 23:40N 55°31' W 133°57'4 0.4 1015.4 14.8
2015-Jul-25 14:40N 55°34' W 134°01'1 0.1 1012.3 14.4
2015-Jul-25 06:40N 55°33' W 134°00'2 0.8 1010.1 14.4
2015-Jul-25 04:40N 55°34' W 134°03'0 0.3 1009.1 14.5
2015-Jul-25 03:40N 55°34' W 134°02'2 0.7 1008.8 14.5
2015-Jul-25 00:40N 55°34' W 134°06'1 0.8 1008.2 14.4
2015-Jul-24 23:40N 55°33' W 134°06'2 0.5 1008.2 14.4
2015-Jul-24 20:40N 55°32' W 134°07'9 0.3 1007.8 14.4
2015-Jul-23 11:40N 55°29' W 134°22'2 0.5 1007.1 14.7
2015-Jul-23 06:40N 55°28' W 134°26'1 0.6 1010.3 14.8
2015-Jul-23 04:40N 55°27' W 134°27'1 0.2 1010.9 15.0
2015-Jul-22 23:40N 55°26' W 134°26'0 0.1 1012.6 15.2
2015-Jul-22 22:40N 55°26' W 134°26'0 0.3 1012.7 15.1
2015-Jul-22 21:40N 55°27' W 134°26'1 0.4 1012.7 14.9
2015-Jul-22 18:40N 55°27' W 134°28'1 0.1 1012.2 14.8
2015-Jul-22 11:40N 55°26' W 134°28'2 0.3 1011.4 14.8
2015-Jul-22 03:40N 55°28' W 134°30'1 0.3 1012.8 14.8
2015-Jul-21 23:40N 55°27' W 134°31'   1013.7 14.8
Track history (hours):
 
Tides and Currents Weather Stations Pressure Air Temp Water Temp Dewpoint Dewpoint Depression Visibility Wind Speed Wind Dir Waves Ship Positions

Drifting buoy 46928

Last reported at 2015-Jul-31 11:40 UTC. Time now 2015-Jul-31 13:24 UTC.
Position N 55°25' W 133°59'.

Barometer 1015.1 mb
Water temperature 14.4 ° C

Date/timePositionNaut miles runAvg speedWind from/ knotsBaromVisibWave heightAir tempDewpointWater temp
2015-Jul-31 11:40N 55°25' W 133°59'4 0.6 1015.1 14.4
2015-Jul-31 05:40N 55°25' W 134°06'3 0.5 1015.3 14.4
2015-Jul-30 23:40N 55°23' W 134°01'2 0.5 1017.2 14.4
2015-Jul-30 19:40N 55°25' W 134°03'5 1.1 1019.1 14.1
2015-Jul-30 14:40N 55°20' W 134°01'3 0.3 1020.3 13.7
2015-Jul-30 05:40N 55°20' W 133°56'1 0.2 1022.9 13.7
2015-Jul-30 01:40N 55°20' W 133°55'2 0.3 1023.6 13.7
2015-Jul-29 20:40N 55°21' W 133°55'1 0.3 1023.2 13.7
2015-Jul-29 16:40N 55°20' W 133°56'1 0.3 1022.6 13.7
2015-Jul-29 14:40N 55°20' W 133°55'1 0.1 1022.3 13.7
2015-Jul-29 05:40N 55°21' W 133°54'1 0.2 1020.5 13.7
2015-Jul-29 02:40N 55°21' W 133°53'1 0.1 1020.3 13.7
2015-Jul-28 15:40N 55°22' W 133°52'1 0.3 1018.2 13.6
2015-Jul-28 11:40N 55°21' W 133°50'2 0.3 1016.9 13.6
2015-Jul-28 05:40N 55°22' W 133°52'1 0.3 1013.7 13.5
2015-Jul-28 02:40N 55°21' W 133°53'1 0.1 1013.5 13.6
2015-Jul-27 20:40N 55°22' W 133°54'1 0.6 1015.2 13.7
2015-Jul-27 19:40N 55°23' W 133°53'2 0.1 1015.2 13.7
2015-Jul-27 00:40N 55°24' W 133°54'0 0.4 1017.1 14.2
2015-Jul-26 23:40N 55°25' W 133°55'2 0.8 1017.6 14.2
2015-Jul-26 21:40N 55°25' W 133°57'1 0.7 1017.8 14.2
2015-Jul-26 20:40N 55°26' W 133°56'2 0.8 1017.5 14.2
2015-Jul-26 18:40N 55°27' W 133°59'1 0.6 1017.0 14.1
2015-Jul-26 17:40N 55°26' W 133°58'0 0.0 1017.2 14.1
2015-Jul-26 16:40N 55°26' W 133°58'1 0.9 1016.9 14.1
2015-Jul-26 15:40N 55°27' W 133°57'0 0.4 1017.0 14.1
2015-Jul-26 14:40N 55°26' W 133°57'0 0.3 1016.8 14.2
2015-Jul-26 13:40N 55°26' W 133°57'1 0.9 1016.5 14.2
2015-Jul-26 12:40N 55°27' W 133°56'3 1.5 1016.5 14.3
2015-Jul-26 10:40N 55°30' W 133°56'0 0.1 1016.3 14.4
2015-Jul-26 06:40N 55°30' W 133°57'0 0.4 1015.7 14.6
2015-Jul-26 05:40N 55°30' W 133°57'1 0.6 1015.8 14.7
2015-Jul-26 03:40N 55°32' W 133°57'0 0.0 1015.6 14.7
2015-Jul-26 02:40N 55°32' W 133°57'0 0.1 1015.5 14.7
2015-Jul-25 23:40N 55°31' W 133°57'4 0.4 1015.4 14.8
2015-Jul-25 14:40N 55°34' W 134°01'1 0.1 1012.3 14.4
2015-Jul-25 06:40N 55°33' W 134°00'2 0.8 1010.1 14.4
2015-Jul-25 04:40N 55°34' W 134°03'0 0.3 1009.1 14.5
2015-Jul-25 03:40N 55°34' W 134°02'2 0.7 1008.8 14.5
2015-Jul-25 00:40N 55°34' W 134°06'1 0.8 1008.2 14.4
2015-Jul-24 23:40N 55°33' W 134°06'2 0.5 1008.2 14.4
2015-Jul-24 20:40N 55°32' W 134°07'9 0.3 1007.8 14.4
2015-Jul-23 11:40N 55°29' W 134°22'2 0.5 1007.1 14.7
2015-Jul-23 06:40N 55°28' W 134°26'1 0.6 1010.3 14.8
2015-Jul-23 04:40N 55°27' W 134°27'1 0.2 1010.9 15.0
2015-Jul-22 23:40N 55°26' W 134°26'0 0.1 1012.6 15.2
2015-Jul-22 22:40N 55°26' W 134°26'0 0.3 1012.7 15.1
2015-Jul-22 21:40N 55°27' W 134°26'1 0.4 1012.7 14.9
2015-Jul-22 18:40N 55°27' W 134°28'1 0.1 1012.2 14.8
2015-Jul-22 11:40N 55°26' W 134°28'2 0.3 1011.4 14.8
2015-Jul-22 03:40N 55°28' W 134°30'1 0.3 1012.8 14.8
2015-Jul-21 23:40N 55°27' W 134°31'   1013.7 14.8

Dump ship's entire track history